Chester, SC

2:42 PM EST on February 27, 2017 (GMT -0500)
Chester | | Change Station

Elev 656 ft 34.79 °N, 81.20 °W | Updated 7 minutes ago

Clear
Clear
64 °F
Feels Like 64 °F
N
8
Wind Variable Wind from ESE
Gusts 17 mph

Today
High -- | Low -- °F
--% Chance of Precip.
Yesterday
High -- | Low -- °F
Precip. -- in
Pressure 30.34 in
Visibility 10.0 miles
Clouds Clear
Dew Point 30 °F
Humidity 28%
Rainfall 0.00 in
Snow Depth Not available.
6:56 AM 6:19 PM
New Moon, 2% visible
METAR KDCM 271935Z AUTO 11007G15KT 080V150 10SM CLR 18/M01 A3034 RMK AO2
Pressure 30.34 in
Visibility 10.0 miles
Clouds Clear
Dew Point 30 °F
Humidity 28%
Rainfall 0.00 in
Snow Depth Not available.
6:56 AM 6:19 PM
New Moon, 2% visible
METAR KDCM 271935Z AUTO 11007G15KT 080V150 10SM CLR 18/M01 A3034 RMK AO2

Get Your Daily Forecast Email!

Thanks for signing up!

Be on the lookout for a verification email in your inbox.

You'll start receiving the daily forecast at 8 AM.

×

10-Day Weather Forecast

Almanac

Astronomy

Feb. 27, 2017 Rise Set
Actual Time
Civil Twilight
Nautical Twilight
Astronomical Twilight
Moon
Length of Visible Light
Length of Day
Tomorrow will be .
, % of the Moon is Illuminated

Today's Extremes

State Highs State Lows

Community

WunderPhotos

Upload Photos

1,962,540 photos uploaded!

WunderBlog® & News

Nearby

Air Quality

  Air Quality AQ Index Pollutant
Not available.

Snow Depth

Station Depth Elevation

Earthquake Activity

City Distance Mag. Time & Date
Minimum magnitude displayed is 2.5.

Coastal Water Temperatures

Place Temperature

Stations

Nearby Weather Stations

Station Location Temp. Windchill Dew Point Humidity Wind Precip. Elev Updated Type
                   

Watches & Warnings

There are currently no watches in effect.